sensor_id;sensor_type;location;lat;lon;timestamp;temperature;humidity
20512;DHT22;10414;52.074;5.126;2023-04-25T00:00:21;7.50;99.90
20512;DHT22;10414;52.074;5.126;2023-04-25T00:02:47;7.60;99.90
20512;DHT22;10414;52.074;5.126;2023-04-25T00:05:14;7.50;99.90
20512;DHT22;10414;52.074;5.126;2023-04-25T00:07:43;7.20;99.90
20512;DHT22;10414;52.074;5.126;2023-04-25T00:10:10;6.90;99.90
20512;DHT22;10414;52.074;5.126;2023-04-25T00:12:37;6.80;99.90
20512;DHT22;10414;52.074;5.126;2023-04-25T00:15:05;6.80;99.90
20512;DHT22;10414;52.074;5.126;2023-04-25T00:17:32;6.70;99.90
20512;DHT22;10414;52.074;5.126;2023-04-25T00:20:00;6.80;99.90
20512;DHT22;10414;52.074;5.126;2023-04-25T00:22:30;6.90;99.90
20512;DHT22;10414;52.074;5.126;2023-04-25T00:24:58;6.90;99.90
20512;DHT22;10414;52.074;5.126;2023-04-25T00:27:25;7.00;99.90
20512;DHT22;10414;52.074;5.126;2023-04-25T00:29:52;7.00;99.90
20512;DHT22;10414;52.074;5.126;2023-04-25T00:32:19;7.00;99.90
20512;DHT22;10414;52.074;5.126;2023-04-25T00:34:46;6.90;99.90
20512;DHT22;10414;52.074;5.126;2023-04-25T00:37:13;6.90;99.90
20512;DHT22;10414;52.074;5.126;2023-04-25T00:39:40;6.90;99.90
20512;DHT22;10414;52.074;5.126;2023-04-25T00:42:08;6.90;99.90
20512;DHT22;10414;52.074;5.126;2023-04-25T00:44:35;6.90;99.90
20512;DHT22;10414;52.074;5.126;2023-04-25T00:47:03;6.90;99.90
20512;DHT22;10414;52.074;5.126;2023-04-25T00:49:29;6.60;99.90
20512;DHT22;10414;52.074;5.126;2023-04-25T00:51:56;6.60;99.90
20512;DHT22;10414;52.074;5.126;2023-04-25T00:54:23;6.60;99.90
20512;DHT22;10414;52.074;5.126;2023-04-25T00:56:50;6.50;99.90
20512;DHT22;10414;52.074;5.126;2023-04-25T00:59:19;6.60;99.90
20512;DHT22;10414;52.074;5.126;2023-04-25T01:01:47;6.60;99.90
20512;DHT22;10414;52.074;5.126;2023-04-25T01:04:13;6.60;99.90
20512;DHT22;10414;52.074;5.126;2023-04-25T01:06:40;6.40;99.90
20512;DHT22;10414;52.074;5.126;2023-04-25T01:09:07;6.30;99.90
20512;DHT22;10414;52.074;5.126;2023-04-25T01:11:35;6.20;99.90
20512;DHT22;10414;52.074;5.126;2023-04-25T01:14:02;6.30;99.90
20512;DHT22;10414;52.074;5.126;2023-04-25T01:16:30;6.30;99.90
20512;DHT22;10414;52.074;5.126;2023-04-25T01:18:58;6.20;99.90
20512;DHT22;10414;52.074;5.126;2023-04-25T01:21:27;6.10;99.90
20512;DHT22;10414;52.074;5.126;2023-04-25T01:23:55;6.10;99.90
20512;DHT22;10414;52.074;5.126;2023-04-25T01:26:23;6.10;99.90
20512;DHT22;10414;52.074;5.126;2023-04-25T01:28:50;6.10;99.90
20512;DHT22;10414;52.074;5.126;2023-04-25T01:31:18;6.30;99.90
20512;DHT22;10414;52.074;5.126;2023-04-25T01:33:46;6.20;99.90
20512;DHT22;10414;52.074;5.126;2023-04-25T01:36:14;6.10;99.90
20512;DHT22;10414;52.074;5.126;2023-04-25T01:38:43;6.10;99.90
20512;DHT22;10414;52.074;5.126;2023-04-25T01:41:11;6.00;99.90
20512;DHT22;10414;52.074;5.126;2023-04-25T01:43:38;6.00;99.90
20512;DHT22;10414;52.074;5.126;2023-04-25T01:46:06;6.30;99.90
20512;DHT22;10414;52.074;5.126;2023-04-25T01:48:32;6.50;99.90
20512;DHT22;10414;52.074;5.126;2023-04-25T01:50:59;6.50;99.90
20512;DHT22;10414;52.074;5.126;2023-04-25T01:53:26;6.50;99.90
20512;DHT22;10414;52.074;5.126;2023-04-25T01:55:55;6.50;99.90
20512;DHT22;10414;52.074;5.126;2023-04-25T01:58:21;6.60;99.90
20512;DHT22;10414;52.074;5.126;2023-04-25T02:00:48;6.50;99.90
20512;DHT22;10414;52.074;5.126;2023-04-25T02:03:15;6.50;99.90
20512;DHT22;10414;52.074;5.126;2023-04-25T02:05:42;6.40;99.90
20512;DHT22;10414;52.074;5.126;2023-04-25T02:08:09;6.20;99.90
20512;DHT22;10414;52.074;5.126;2023-04-25T02:10:36;6.40;99.90
20512;DHT22;10414;52.074;5.126;2023-04-25T02:13:04;6.50;99.90
20512;DHT22;10414;52.074;5.126;2023-04-25T02:15:31;6.70;99.90
20512;DHT22;10414;52.074;5.126;2023-04-25T02:17:58;6.80;99.90
20512;DHT22;10414;52.074;5.126;2023-04-25T02:20:27;6.70;99.90
20512;DHT22;10414;52.074;5.126;2023-04-25T02:22:55;6.80;99.90
20512;DHT22;10414;52.074;5.126;2023-04-25T02:25:22;6.70;99.90
20512;DHT22;10414;52.074;5.126;2023-04-25T02:27:49;6.70;99.90
20512;DHT22;10414;52.074;5.126;2023-04-25T02:30:18;6.50;99.90
20512;DHT22;10414;52.074;5.126;2023-04-25T02:32:45;6.20;99.90
20512;DHT22;10414;52.074;5.126;2023-04-25T02:35:12;6.30;99.90
20512;DHT22;10414;52.074;5.126;2023-04-25T02:37:39;6.40;99.90
20512;DHT22;10414;52.074;5.126;2023-04-25T02:40:07;6.50;99.90
20512;DHT22;10414;52.074;5.126;2023-04-25T02:42:35;6.40;99.90
20512;DHT22;10414;52.074;5.126;2023-04-25T02:45:01;6.60;99.90
20512;DHT22;10414;52.074;5.126;2023-04-25T02:47:30;6.70;99.90
20512;DHT22;10414;52.074;5.126;2023-04-25T02:49:57;6.90;99.90
20512;DHT22;10414;52.074;5.126;2023-04-25T02:52:24;6.80;99.90
20512;DHT22;10414;52.074;5.126;2023-04-25T02:54:51;6.90;99.90
20512;DHT22;10414;52.074;5.126;2023-04-25T02:57:18;6.70;99.90
20512;DHT22;10414;52.074;5.126;2023-04-25T02:59:45;6.80;99.90
20512;DHT22;10414;52.074;5.126;2023-04-25T03:02:11;7.00;99.90
20512;DHT22;10414;52.074;5.126;2023-04-25T03:04:40;7.00;99.90
20512;DHT22;10414;52.074;5.126;2023-04-25T03:07:06;7.20;99.90
20512;DHT22;10414;52.074;5.126;2023-04-25T03:09:33;7.10;99.90
20512;DHT22;10414;52.074;5.126;2023-04-25T03:12:00;7.10;99.90
20512;DHT22;10414;52.074;5.126;2023-04-25T03:14:27;7.20;99.90
20512;DHT22;10414;52.074;5.126;2023-04-25T03:16:54;7.00;99.90
20512;DHT22;10414;52.074;5.126;2023-04-25T03:19:21;7.20;99.90
20512;DHT22;10414;52.074;5.126;2023-04-25T03:21:49;7.40;99.90
20512;DHT22;10414;52.074;5.126;2023-04-25T03:24:16;7.30;99.90
20512;DHT22;10414;52.074;5.126;2023-04-25T03:26:43;7.00;99.90
20512;DHT22;10414;52.074;5.126;2023-04-25T03:29:10;6.60;99.90
20512;DHT22;10414;52.074;5.126;2023-04-25T03:31:37;6.30;99.90
20512;DHT22;10414;52.074;5.126;2023-04-25T03:34:03;6.20;99.90
20512;DHT22;10414;52.074;5.126;2023-04-25T03:36:30;5.90;99.90
20512;DHT22;10414;52.074;5.126;2023-04-25T03:38:59;5.90;99.90
20512;DHT22;10414;52.074;5.126;2023-04-25T03:41:26;6.00;99.90
20512;DHT22;10414;52.074;5.126;2023-04-25T03:43:53;6.10;99.90
20512;DHT22;10414;52.074;5.126;2023-04-25T03:46:20;6.20;99.90
20512;DHT22;10414;52.074;5.126;2023-04-25T03:48:47;6.30;99.90
20512;DHT22;10414;52.074;5.126;2023-04-25T03:51:14;6.70;99.90
20512;DHT22;10414;52.074;5.126;2023-04-25T03:53:41;6.90;99.90
20512;DHT22;10414;52.074;5.126;2023-04-25T03:56:09;7.30;99.90
20512;DHT22;10414;52.074;5.126;2023-04-25T03:58:36;7.40;99.90
20512;DHT22;10414;52.074;5.126;2023-04-25T04:01:03;7.40;99.90
20512;DHT22;10414;52.074;5.126;2023-04-25T04:03:33;7.60;99.90
20512;DHT22;10414;52.074;5.126;2023-04-25T04:06:00;7.60;99.90
20512;DHT22;10414;52.074;5.126;2023-04-25T04:08:27;7.40;99.90
20512;DHT22;10414;52.074;5.126;2023-04-25T04:10:53;7.50;99.90
20512;DHT22;10414;52.074;5.126;2023-04-25T04:13:21;7.50;99.90
20512;DHT22;10414;52.074;5.126;2023-04-25T04:15:48;7.20;99.90
20512;DHT22;10414;52.074;5.126;2023-04-25T04:18:16;6.90;99.90
20512;DHT22;10414;52.074;5.126;2023-04-25T04:20:42;6.60;99.90
20512;DHT22;10414;52.074;5.126;2023-04-25T04:23:09;6.80;99.90
20512;DHT22;10414;52.074;5.126;2023-04-25T04:25:37;6.60;99.90
20512;DHT22;10414;52.074;5.126;2023-04-25T04:28:05;6.60;99.90
20512;DHT22;10414;52.074;5.126;2023-04-25T04:30:34;6.40;99.90
20512;DHT22;10414;52.074;5.126;2023-04-25T04:33:01;6.10;99.90
20512;DHT22;10414;52.074;5.126;2023-04-25T04:35:29;6.10;99.90
20512;DHT22;10414;52.074;5.126;2023-04-25T04:37:55;6.10;99.90
20512;DHT22;10414;52.074;5.126;2023-04-25T04:40:22;6.00;99.90
20512;DHT22;10414;52.074;5.126;2023-04-25T04:42:51;6.00;99.90
20512;DHT22;10414;52.074;5.126;2023-04-25T04:45:18;6.10;99.90
20512;DHT22;10414;52.074;5.126;2023-04-25T04:47:47;6.20;99.90
20512;DHT22;10414;52.074;5.126;2023-04-25T04:50:15;6.20;99.90
20512;DHT22;10414;52.074;5.126;2023-04-25T04:52:42;6.30;99.90
20512;DHT22;10414;52.074;5.126;2023-04-25T04:55:09;6.60;99.90
20512;DHT22;10414;52.074;5.126;2023-04-25T04:57:36;6.60;99.90
20512;DHT22;10414;52.074;5.126;2023-04-25T05:00:05;6.70;99.90
20512;DHT22;10414;52.074;5.126;2023-04-25T05:02:36;6.60;99.90
20512;DHT22;10414;52.074;5.126;2023-04-25T05:05:05;6.70;99.90
20512;DHT22;10414;52.074;5.126;2023-04-25T05:07:33;6.60;99.90
20512;DHT22;10414;52.074;5.126;2023-04-25T05:09:59;6.70;99.90
20512;DHT22;10414;52.074;5.126;2023-04-25T05:12:27;6.90;99.90
20512;DHT22;10414;52.074;5.126;2023-04-25T05:14:53;6.80;99.90
20512;DHT22;10414;52.074;5.126;2023-04-25T05:17:20;6.80;99.90
20512;DHT22;10414;52.074;5.126;2023-04-25T05:19:47;7.00;99.90
20512;DHT22;10414;52.074;5.126;2023-04-25T05:22:15;7.00;99.90
20512;DHT22;10414;52.074;5.126;2023-04-25T05:24:42;7.20;99.90
20512;DHT22;10414;52.074;5.126;2023-04-25T05:27:09;7.20;99.90
20512;DHT22;10414;52.074;5.126;2023-04-25T05:29:36;7.30;99.90
20512;DHT22;10414;52.074;5.126;2023-04-25T05:32:05;7.50;99.90
20512;DHT22;10414;52.074;5.126;2023-04-25T05:34:33;7.90;99.90
20512;DHT22;10414;52.074;5.126;2023-04-25T05:36:59;7.90;99.90
20512;DHT22;10414;52.074;5.126;2023-04-25T05:39:28;7.70;99.90
20512;DHT22;10414;52.074;5.126;2023-04-25T05:41:55;7.80;99.90
20512;DHT22;10414;52.074;5.126;2023-04-25T05:44:22;7.90;99.90
20512;DHT22;10414;52.074;5.126;2023-04-25T05:46:49;8.10;99.90
20512;DHT22;10414;52.074;5.126;2023-04-25T05:49:15;8.20;99.90
20512;DHT22;10414;52.074;5.126;2023-04-25T05:51:42;8.30;99.90
20512;DHT22;10414;52.074;5.126;2023-04-25T05:54:09;8.20;99.90
20512;DHT22;10414;52.074;5.126;2023-04-25T05:56:37;8.30;99.90
20512;DHT22;10414;52.074;5.126;2023-04-25T05:59:04;8.50;99.90
20512;DHT22;10414;52.074;5.126;2023-04-25T06:01:31;8.50;99.90
20512;DHT22;10414;52.074;5.126;2023-04-25T06:03:58;8.70;99.90
20512;DHT22;10414;52.074;5.126;2023-04-25T06:06:25;8.80;99.90
20512;DHT22;10414;52.074;5.126;2023-04-25T06:08:52;8.90;99.90
20512;DHT22;10414;52.074;5.126;2023-04-25T06:11:19;9.40;99.90
20512;DHT22;10414;52.074;5.126;2023-04-25T06:13:47;9.80;99.90
20512;DHT22;10414;52.074;5.126;2023-04-25T06:16:14;9.80;99.90
20512;DHT22;10414;52.074;5.126;2023-04-25T06:18:41;9.80;99.90
20512;DHT22;10414;52.074;5.126;2023-04-25T06:21:08;10.00;99.90
20512;DHT22;10414;52.074;5.126;2023-04-25T06:23:35;10.70;99.90
20512;DHT22;10414;52.074;5.126;2023-04-25T06:26:01;11.90;99.90
20512;DHT22;10414;52.074;5.126;2023-04-25T06:28:28;12.60;99.90
20512;DHT22;10414;52.074;5.126;2023-04-25T06:30:57;13.20;99.90
20512;DHT22;10414;52.074;5.126;2023-04-25T06:33:23;13.80;99.90
20512;DHT22;10414;52.074;5.126;2023-04-25T06:35:50;13.70;99.90
20512;DHT22;10414;52.074;5.126;2023-04-25T06:38:17;14.80;99.90
20512;DHT22;10414;52.074;5.126;2023-04-25T06:40:44;16.30;99.90
20512;DHT22;10414;52.074;5.126;2023-04-25T06:43:11;18.20;98.50
20512;DHT22;10414;52.074;5.126;2023-04-25T06:45:38;19.40;96.90
20512;DHT22;10414;52.074;5.126;2023-04-25T06:48:06;21.10;94.30
20512;DHT22;10414;52.074;5.126;2023-04-25T06:50:33;21.60;91.70
20512;DHT22;10414;52.074;5.126;2023-04-25T06:53:00;22.40;90.20
20512;DHT22;10414;52.074;5.126;2023-04-25T06:55:27;23.20;87.20
20512;DHT22;10414;52.074;5.126;2023-04-25T06:57:55;23.40;84.20
20512;DHT22;10414;52.074;5.126;2023-04-25T07:00:22;24.00;83.00
20512;DHT22;10414;52.074;5.126;2023-04-25T07:02:49;24.60;78.50
20512;DHT22;10414;52.074;5.126;2023-04-25T07:05:17;21.60;82.40
20512;DHT22;10414;52.074;5.126;2023-04-25T07:07:44;19.60;88.90
20512;DHT22;10414;52.074;5.126;2023-04-25T07:10:11;19.00;91.50
20512;DHT22;10414;52.074;5.126;2023-04-25T07:12:37;17.50;93.30
20512;DHT22;10414;52.074;5.126;2023-04-25T07:15:06;16.60;95.10
20512;DHT22;10414;52.074;5.126;2023-04-25T07:17:35;16.30;96.80
20512;DHT22;10414;52.074;5.126;2023-04-25T07:20:02;14.40;99.10
20512;DHT22;10414;52.074;5.126;2023-04-25T07:22:32;13.70;99.90
20512;DHT22;10414;52.074;5.126;2023-04-25T07:24:59;13.50;99.90
20512;DHT22;10414;52.074;5.126;2023-04-25T07:27:26;13.10;99.90
20512;DHT22;10414;52.074;5.126;2023-04-25T07:29:53;12.90;99.90
20512;DHT22;10414;52.074;5.126;2023-04-25T07:32:20;12.00;99.90
20512;DHT22;10414;52.074;5.126;2023-04-25T07:34:47;11.00;99.90
20512;DHT22;10414;52.074;5.126;2023-04-25T07:37:13;10.40;99.90
20512;DHT22;10414;52.074;5.126;2023-04-25T07:39:42;10.10;99.90
20512;DHT22;10414;52.074;5.126;2023-04-25T07:42:08;9.60;99.90
20512;DHT22;10414;52.074;5.126;2023-04-25T07:44:35;9.60;99.90
20512;DHT22;10414;52.074;5.126;2023-04-25T07:47:04;9.80;99.90
20512;DHT22;10414;52.074;5.126;2023-04-25T07:49:32;10.20;99.90
20512;DHT22;10414;52.074;5.126;2023-04-25T07:52:00;10.20;99.90
20512;DHT22;10414;52.074;5.126;2023-04-25T07:54:27;10.60;99.90
20512;DHT22;10414;52.074;5.126;2023-04-25T07:56:55;12.80;99.90
20512;DHT22;10414;52.074;5.126;2023-04-25T07:59:22;13.40;99.90
20512;DHT22;10414;52.074;5.126;2023-04-25T08:01:49;13.40;99.90
20512;DHT22;10414;52.074;5.126;2023-04-25T08:04:16;12.80;99.90
20512;DHT22;10414;52.074;5.126;2023-04-25T08:06:43;12.90;99.90
20512;DHT22;10414;52.074;5.126;2023-04-25T08:09:11;13.50;99.90
20512;DHT22;10414;52.074;5.126;2023-04-25T08:11:37;15.70;98.90
20512;DHT22;10414;52.074;5.126;2023-04-25T08:14:06;18.40;94.10
20512;DHT22;10414;52.074;5.126;2023-04-25T08:16:33;18.70;91.70
20512;DHT22;10414;52.074;5.126;2023-04-25T08:19:00;20.40;88.90
20512;DHT22;10414;52.074;5.126;2023-04-25T08:21:27;20.40;84.50
20512;DHT22;10414;52.074;5.126;2023-04-25T08:23:54;21.00;83.90
20512;DHT22;10414;52.074;5.126;2023-04-25T08:26:21;21.30;82.30
20512;DHT22;10414;52.074;5.126;2023-04-25T08:28:48;21.90;79.20
20512;DHT22;10414;52.074;5.126;2023-04-25T08:31:16;22.70;78.80
20512;DHT22;10414;52.074;5.126;2023-04-25T08:33:43;24.60;73.00
20512;DHT22;10414;52.074;5.126;2023-04-25T08:36:10;24.10;71.00
20512;DHT22;10414;52.074;5.126;2023-04-25T08:38:37;23.80;70.70
20512;DHT22;10414;52.074;5.126;2023-04-25T08:41:05;21.80;73.10
20512;DHT22;10414;52.074;5.126;2023-04-25T08:43:34;20.40;78.40
20512;DHT22;10414;52.074;5.126;2023-04-25T08:46:01;19.40;78.60
20512;DHT22;10414;52.074;5.126;2023-04-25T08:48:32;18.70;81.80
20512;DHT22;10414;52.074;5.126;2023-04-25T08:51:02;18.20;83.30
20512;DHT22;10414;52.074;5.126;2023-04-25T08:53:31;18.80;83.60
20512;DHT22;10414;52.074;5.126;2023-04-25T08:56:00;19.50;82.70
20512;DHT22;10414;52.074;5.126;2023-04-25T08:58:28;21.60;78.30
20512;DHT22;10414;52.074;5.126;2023-04-25T09:00:55;22.10;76.20
20512;DHT22;10414;52.074;5.126;2023-04-25T09:03:21;22.10;76.50
20512;DHT22;10414;52.074;5.126;2023-04-25T09:05:51;24.30;72.90
20512;DHT22;10414;52.074;5.126;2023-04-25T09:08:18;25.10;70.80
20512;DHT22;10414;52.074;5.126;2023-04-25T09:10:45;24.20;68.50
20512;DHT22;10414;52.074;5.126;2023-04-25T09:13:13;21.20;73.20
20512;DHT22;10414;52.074;5.126;2023-04-25T09:15:48;18.10;76.90
20512;DHT22;10414;52.074;5.126;2023-04-25T09:18:22;15.90;81.30
20512;DHT22;10414;52.074;5.126;2023-04-25T09:20:52;15.80;82.40
20512;DHT22;10414;52.074;5.126;2023-04-25T09:23:19;18.60;77.50
20512;DHT22;10414;52.074;5.126;2023-04-25T09:25:48;20.30;73.30
20512;DHT22;10414;52.074;5.126;2023-04-25T09:28:15;18.90;73.80
20512;DHT22;10414;52.074;5.126;2023-04-25T09:30:42;20.50;72.60
20512;DHT22;10414;52.074;5.126;2023-04-25T09:33:10;22.30;70.50
20512;DHT22;10414;52.074;5.126;2023-04-25T09:35:40;23.00;68.50
20512;DHT22;10414;52.074;5.126;2023-04-25T09:38:13;24.80;68.20
20512;DHT22;10414;52.074;5.126;2023-04-25T09:40:41;23.60;66.30
20512;DHT22;10414;52.074;5.126;2023-04-25T09:43:18;20.80;70.80
20512;DHT22;10414;52.074;5.126;2023-04-25T09:45:46;17.70;73.10
20512;DHT22;10414;52.074;5.126;2023-04-25T09:48:17;15.80;78.50
20512;DHT22;10414;52.074;5.126;2023-04-25T09:50:45;15.40;82.40
20512;DHT22;10414;52.074;5.126;2023-04-25T09:53:13;14.40;90.50
20512;DHT22;10414;52.074;5.126;2023-04-25T09:55:42;12.90;93.90
20512;DHT22;10414;52.074;5.126;2023-04-25T09:58:11;12.30;97.80
20512;DHT22;10414;52.074;5.126;2023-04-25T10:00:39;11.50;99.90
20512;DHT22;10414;52.074;5.126;2023-04-25T10:03:07;10.90;99.90
20512;DHT22;10414;52.074;5.126;2023-04-25T10:05:34;10.80;99.90
20512;DHT22;10414;52.074;5.126;2023-04-25T10:08:03;10.70;99.90
20512;DHT22;10414;52.074;5.126;2023-04-25T10:10:32;11.10;99.90
20512;DHT22;10414;52.074;5.126;2023-04-25T10:13:04;11.80;99.90
20512;DHT22;10414;52.074;5.126;2023-04-25T10:15:32;11.80;99.90
20512;DHT22;10414;52.074;5.126;2023-04-25T10:18:01;12.20;99.90
20512;DHT22;10414;52.074;5.126;2023-04-25T10:20:28;12.20;99.90
20512;DHT22;10414;52.074;5.126;2023-04-25T10:23:10;12.80;99.90
20512;DHT22;10414;52.074;5.126;2023-04-25T10:25:40;13.50;99.00
20512;DHT22;10414;52.074;5.126;2023-04-25T10:28:07;14.20;98.50
20512;DHT22;10414;52.074;5.126;2023-04-25T10:30:34;15.00;96.80
20512;DHT22;10414;52.074;5.126;2023-04-25T10:33:01;15.40;96.20
20512;DHT22;10414;52.074;5.126;2023-04-25T10:35:29;15.40;94.60
20512;DHT22;10414;52.074;5.126;2023-04-25T10:37:59;16.20;93.90
20512;DHT22;10414;52.074;5.126;2023-04-25T10:40:26;16.70;92.60
20512;DHT22;10414;52.074;5.126;2023-04-25T10:42:54;16.20;92.80
20512;DHT22;10414;52.074;5.126;2023-04-25T10:45:22;15.80;92.70
20512;DHT22;10414;52.074;5.126;2023-04-25T10:47:49;15.80;93.10
20512;DHT22;10414;52.074;5.126;2023-04-25T10:50:16;16.50;92.90
20512;DHT22;10414;52.074;5.126;2023-04-25T10:52:43;17.70;90.50
20512;DHT22;10414;52.074;5.126;2023-04-25T10:55:10;18.30;84.80
20512;DHT22;10414;52.074;5.126;2023-04-25T10:57:39;19.50;83.80
20512;DHT22;10414;52.074;5.126;2023-04-25T11:00:11;19.10;83.00
20512;DHT22;10414;52.074;5.126;2023-04-25T11:02:41;17.50;88.50
20512;DHT22;10414;52.074;5.126;2023-04-25T11:05:09;16.80;90.00
20512;DHT22;10414;52.074;5.126;2023-04-25T11:07:49;15.70;91.60
20512;DHT22;10414;52.074;5.126;2023-04-25T11:10:16;14.90;92.80
20512;DHT22;10414;52.074;5.126;2023-04-25T11:12:45;13.50;93.80
20512;DHT22;10414;52.074;5.126;2023-04-25T11:15:13;13.70;95.50
20512;DHT22;10414;52.074;5.126;2023-04-25T11:17:40;13.60;94.90
20512;DHT22;10414;52.074;5.126;2023-04-25T11:20:09;13.30;96.10
20512;DHT22;10414;52.074;5.126;2023-04-25T11:22:38;14.90;95.70
20512;DHT22;10414;52.074;5.126;2023-04-25T11:25:07;15.40;93.10
20512;DHT22;10414;52.074;5.126;2023-04-25T11:27:36;14.80;94.40
20512;DHT22;10414;52.074;5.126;2023-04-25T11:30:13;13.90;96.30
20512;DHT22;10414;52.074;5.126;2023-04-25T11:32:41;13.60;97.30
20512;DHT22;10414;52.074;5.126;2023-04-25T11:35:08;13.50;97.00
20512;DHT22;10414;52.074;5.126;2023-04-25T11:37:35;13.60;97.30
20512;DHT22;10414;52.074;5.126;2023-04-25T11:40:04;13.00;97.10
20512;DHT22;10414;52.074;5.126;2023-04-25T11:42:32;12.90;97.60
20512;DHT22;10414;52.074;5.126;2023-04-25T11:44:58;13.10;98.20
20512;DHT22;10414;52.074;5.126;2023-04-25T11:47:29;13.30;97.30
20512;DHT22;10414;52.074;5.126;2023-04-25T11:49:58;14.20;96.10
20512;DHT22;10414;52.074;5.126;2023-04-25T11:52:24;14.20;95.60
20512;DHT22;10414;52.074;5.126;2023-04-25T11:54:51;13.70;96.50
20512;DHT22;10414;52.074;5.126;2023-04-25T11:57:19;12.40;99.30
20512;DHT22;10414;52.074;5.126;2023-04-25T11:59:46;11.40;99.90
20512;DHT22;10414;52.074;5.126;2023-04-25T12:02:24;11.00;99.90
20512;DHT22;10414;52.074;5.126;2023-04-25T12:04:52;10.60;99.90
20512;DHT22;10414;52.074;5.126;2023-04-25T12:07:19;10.60;99.90
20512;DHT22;10414;52.074;5.126;2023-04-25T12:09:51;10.50;99.90
20512;DHT22;10414;52.074;5.126;2023-04-25T12:12:18;10.40;99.90
20512;DHT22;10414;52.074;5.126;2023-04-25T12:14:47;10.40;99.90
20512;DHT22;10414;52.074;5.126;2023-04-25T12:17:14;10.40;99.90
20512;DHT22;10414;52.074;5.126;2023-04-25T12:19:41;10.50;99.90
20512;DHT22;10414;52.074;5.126;2023-04-25T12:22:21;10.70;99.90
20512;DHT22;10414;52.074;5.126;2023-04-25T12:24:48;11.10;99.90
20512;DHT22;10414;52.074;5.126;2023-04-25T12:27:16;11.30;99.90
20512;DHT22;10414;52.074;5.126;2023-04-25T12:29:51;11.50;99.90
20512;DHT22;10414;52.074;5.126;2023-04-25T12:32:18;11.90;99.90
20512;DHT22;10414;52.074;5.126;2023-04-25T12:34:45;12.60;99.90
20512;DHT22;10414;52.074;5.126;2023-04-25T12:37:13;13.70;99.30
20512;DHT22;10414;52.074;5.126;2023-04-25T12:39:41;13.60;99.80
20512;DHT22;10414;52.074;5.126;2023-04-25T12:42:08;13.20;99.00
20512;DHT22;10414;52.074;5.126;2023-04-25T12:44:37;13.20;99.90
20512;DHT22;10414;52.074;5.126;2023-04-25T12:47:04;13.30;99.30
20512;DHT22;10414;52.074;5.126;2023-04-25T12:49:31;12.90;98.60
20512;DHT22;10414;52.074;5.126;2023-04-25T12:51:58;12.80;99.60
20512;DHT22;10414;52.074;5.126;2023-04-25T12:54:25;12.80;99.20
20512;DHT22;10414;52.074;5.126;2023-04-25T12:56:54;12.90;99.60
20512;DHT22;10414;52.074;5.126;2023-04-25T12:59:21;12.70;99.40
20512;DHT22;10414;52.074;5.126;2023-04-25T13:01:48;12.10;99.50
20512;DHT22;10414;52.074;5.126;2023-04-25T13:04:14;12.10;99.90
20512;DHT22;10414;52.074;5.126;2023-04-25T13:06:42;12.40;99.70
20512;DHT22;10414;52.074;5.126;2023-04-25T13:09:09;12.70;99.10
20512;DHT22;10414;52.074;5.126;2023-04-25T13:11:37;12.90;99.30
20512;DHT22;10414;52.074;5.126;2023-04-25T13:14:05;13.10;99.00
20512;DHT22;10414;52.074;5.126;2023-04-25T13:16:32;13.50;99.10
20512;DHT22;10414;52.074;5.126;2023-04-25T13:19:00;13.10;96.00
20512;DHT22;10414;52.074;5.126;2023-04-25T13:21:30;12.70;95.30
20512;DHT22;10414;52.074;5.126;2023-04-25T13:23:57;12.50;95.40
20512;DHT22;10414;52.074;5.126;2023-04-25T13:26:25;12.60;94.50
20512;DHT22;10414;52.074;5.126;2023-04-25T13:28:52;12.50;93.60
20512;DHT22;10414;52.074;5.126;2023-04-25T13:31:20;12.40;94.70
20512;DHT22;10414;52.074;5.126;2023-04-25T13:33:47;12.30;95.50
20512;DHT22;10414;52.074;5.126;2023-04-25T13:36:14;12.20;96.30
20512;DHT22;10414;52.074;5.126;2023-04-25T13:38:41;12.20;96.70
20512;DHT22;10414;52.074;5.126;2023-04-25T13:41:09;12.20;96.30
20512;DHT22;10414;52.074;5.126;2023-04-25T13:43:37;12.50;97.30
20512;DHT22;10414;52.074;5.126;2023-04-25T13:46:04;12.80;95.90
20512;DHT22;10414;52.074;5.126;2023-04-25T13:48:32;12.70;95.90
20512;DHT22;10414;52.074;5.126;2023-04-25T13:50:59;12.90;96.70
20512;DHT22;10414;52.074;5.126;2023-04-25T13:53:26;13.00;94.00
20512;DHT22;10414;52.074;5.126;2023-04-25T13:55:53;12.60;94.30
20512;DHT22;10414;52.074;5.126;2023-04-25T13:58:20;12.50;95.50
20512;DHT22;10414;52.074;5.126;2023-04-25T14:00:47;12.30;96.80
20512;DHT22;10414;52.074;5.126;2023-04-25T14:03:14;12.20;98.80
20512;DHT22;10414;52.074;5.126;2023-04-25T14:05:42;12.10;99.80
20512;DHT22;10414;52.074;5.126;2023-04-25T14:08:09;11.90;99.90
20512;DHT22;10414;52.074;5.126;2023-04-25T14:10:37;11.50;99.90
20512;DHT22;10414;52.074;5.126;2023-04-25T14:13:04;11.00;99.90
20512;DHT22;10414;52.074;5.126;2023-04-25T14:15:32;11.00;99.90
20512;DHT22;10414;52.074;5.126;2023-04-25T14:18:00;11.50;99.90
20512;DHT22;10414;52.074;5.126;2023-04-25T14:20:27;12.10;99.90
20512;DHT22;10414;52.074;5.126;2023-04-25T14:22:56;12.20;99.90
20512;DHT22;10414;52.074;5.126;2023-04-25T14:25:23;12.10;99.90
20512;DHT22;10414;52.074;5.126;2023-04-25T14:27:51;12.00;99.90
20512;DHT22;10414;52.074;5.126;2023-04-25T14:30:18;11.90;99.90
20512;DHT22;10414;52.074;5.126;2023-04-25T14:32:45;11.40;99.90
20512;DHT22;10414;52.074;5.126;2023-04-25T14:35:13;11.30;99.90
20512;DHT22;10414;52.074;5.126;2023-04-25T14:37:40;11.10;99.90
20512;DHT22;10414;52.074;5.126;2023-04-25T14:40:09;10.80;99.90
20512;DHT22;10414;52.074;5.126;2023-04-25T14:42:37;10.90;99.90
20512;DHT22;10414;52.074;5.126;2023-04-25T14:45:06;11.40;99.90
20512;DHT22;10414;52.074;5.126;2023-04-25T14:47:34;11.70;99.90
20512;DHT22;10414;52.074;5.126;2023-04-25T14:50:01;11.60;99.90
20512;DHT22;10414;52.074;5.126;2023-04-25T14:52:28;11.50;99.90
20512;DHT22;10414;52.074;5.126;2023-04-25T14:54:55;11.30;99.90
20512;DHT22;10414;52.074;5.126;2023-04-25T14:57:23;11.50;99.90
20512;DHT22;10414;52.074;5.126;2023-04-25T14:59:50;11.30;99.90
20512;DHT22;10414;52.074;5.126;2023-04-25T15:02:17;11.20;99.90
20512;DHT22;10414;52.074;5.126;2023-04-25T15:04:44;11.20;99.90
20512;DHT22;10414;52.074;5.126;2023-04-25T15:07:11;11.40;99.90
20512;DHT22;10414;52.074;5.126;2023-04-25T15:09:37;11.40;99.90
20512;DHT22;10414;52.074;5.126;2023-04-25T15:12:05;11.50;99.80
20512;DHT22;10414;52.074;5.126;2023-04-25T15:14:33;11.40;98.80
20512;DHT22;10414;52.074;5.126;2023-04-25T15:17:00;11.20;98.60
20512;DHT22;10414;52.074;5.126;2023-04-25T15:19:28;11.50;99.20
20512;DHT22;10414;52.074;5.126;2023-04-25T15:21:54;11.50;99.80
20512;DHT22;10414;52.074;5.126;2023-04-25T15:24:22;11.60;99.90
20512;DHT22;10414;52.074;5.126;2023-04-25T15:26:48;11.40;99.90
20512;DHT22;10414;52.074;5.126;2023-04-25T15:29:16;11.10;99.90
20512;DHT22;10414;52.074;5.126;2023-04-25T15:31:44;11.00;99.90
20512;DHT22;10414;52.074;5.126;2023-04-25T15:34:11;10.80;99.90
20512;DHT22;10414;52.074;5.126;2023-04-25T15:36:38;10.80;99.90
20512;DHT22;10414;52.074;5.126;2023-04-25T15:39:04;10.50;99.90